^^
Lisbon, NH - Weather Station Historical Data
Daily Summary for September 25, 2021 Units:  English    Metric   Both
Daily Weekly Monthly Yearly
  High: Low: Average:
Temperature: 72.1 °F 51.7 °F 59.4 °F
Dew Point: 61.3 °F 51.7 °F 55.8 °F
Humidity: 100% 55.7% 90%
Wind Speed: 3.2mph 0mph 0.8mph
Wind Gust: 7mph - -
Wind- - SSE
Pressure: 30.07 in 29.88 in -
Precipitation: 0.00 in    
 
 
Tabular Data for September 25, 2021
Time Temperature Dew Point Pressure Wind Wind Speed Wind Gust Humidity Rainfall Rate (Hourly) solar
00:04 56.7 °F 56.7 °F 30.02 in SW 0.1 mph 2 mph 100% 0.00 in 0 W/m2
00:09 56.7 °F 56.7 °F 30.02 in SW 0.2 mph 2 mph 100% 0.00 in 0 W/m2
00:14 56.6 °F 56.6 °F 30.02 in Calm     100% 0.00 in 0 W/m2
00:19 56.5 °F 56.5 °F 30.02 in Calm     100% 0.00 in 0 W/m2
00:24 56.3 °F 56.3 °F 30.02 in Calm     100% 0.00 in 0 W/m2
00:29 56.2 °F 56.2 °F 30.02 in Calm     100% 0.00 in 0 W/m2
00:34 56.2 °F 56.2 °F 30.02 in Calm     100% 0.00 in 0 W/m2
00:39 56 °F 56 °F 30.02 in Calm     100% 0.00 in 0 W/m2
00:44 55.9 °F 55.9 °F 30.02 in Calm     100% 0.00 in 0 W/m2
00:49 55.9 °F 55.9 °F 30.02 in Calm     100% 0.00 in 0 W/m2
00:54 55.7 °F 55.7 °F 30.02 in Calm     100% 0.00 in 0 W/m2
00:59 55.6 °F 55.6 °F 30.02 in Calm     100% 0.00 in 0 W/m2
01:04 55.4 °F 55.4 °F 30.02 in Calm     100% 0.00 in 0 W/m2
01:09 55.3 °F 55.3 °F 30.02 in Calm     100% 0.00 in 0 W/m2
01:14 55.3 °F 55.3 °F 30.02 in Calm     100% 0.00 in 0 W/m2
01:19 55.3 °F 55.3 °F 30.02 in Calm     100% 0.00 in 0 W/m2
01:24 55.3 °F 55.3 °F 30.02 in Calm     100% 0.00 in 0 W/m2
01:29 55.1 °F 55.1 °F 30.03 in Calm     100% 0.00 in 0 W/m2
01:34 55.1 °F 55.1 °F 30.03 in Calm     100% 0.00 in 0 W/m2
01:39 55 °F 55 °F 30.03 in Calm     100% 0.00 in 0 W/m2
01:44 54.8 °F 54.8 °F 30.03 in Calm     100% 0.00 in 0 W/m2
01:49 54.8 °F 54.8 °F 30.03 in Calm     100% 0.00 in 0 W/m2
01:54 54.8 °F 54.8 °F 30.03 in Calm     100% 0.00 in 0 W/m2
01:59 54.7 °F 54.7 °F 30.03 in Calm     100% 0.00 in 0 W/m2
02:04 54.8 °F 54.8 °F 30.03 in Calm     100% 0.00 in 0 W/m2
02:09 54.8 °F 54.8 °F 30.03 in Calm     100% 0.00 in 0 W/m2
02:14 54.8 °F 54.8 °F 30.04 in Calm     100% 0.00 in 0 W/m2
02:19 54.8 °F 54.8 °F 30.04 in Calm     100% 0.00 in 0 W/m2
02:24 54.8 °F 54.8 °F 30.04 in SW 0.3 mph 2 mph 100% 0.00 in 0 W/m2
02:29 54.8 °F 54.8 °F 30.04 in SW 1 mph 3 mph 100% 0.00 in 0 W/m2
02:34 54.7 °F 54.7 °F 30.04 in SW 0.6 mph 2 mph 100% 0.00 in 0 W/m2
02:39 54.7 °F 54.7 °F 30.04 in SW 0.4 mph 2 mph 100% 0.00 in 0 W/m2
02:44 54.6 °F 54.6 °F 30.04 in SW 1.5 mph 4 mph 100% 0.00 in 0 W/m2
02:49 54.4 °F 54.4 °F 30.04 in SSW 1.5 mph 3 mph 100% 0.00 in 0 W/m2
02:54 54.2 °F 54.2 °F 30.04 in SW 1.8 mph 3 mph 100% 0.00 in 0 W/m2
02:59 54 °F 54 °F 30.04 in SW 1.4 mph 3 mph 100% 0.00 in 0 W/m2
03:04 53.8 °F 53.8 °F 30.04 in SSW 0.9 mph 2 mph 100% 0.00 in 0 W/m2
03:09 53.8 °F 53.8 °F 30.04 in SSW 0.5 mph 2 mph 100% 0.00 in 0 W/m2
03:14 53.7 °F 53.7 °F 30.04 in SSW 0.5 mph 2 mph 100% 0.00 in 0 W/m2
03:19 53.7 °F 53.7 °F 30.04 in SSW 0.4 mph 2 mph 100% 0.00 in 0 W/m2
03:24 53.8 °F 53.8 °F 30.04 in SSW 0.8 mph 2 mph 100% 0.00 in 0 W/m2
03:29 53.6 °F 53.6 °F 30.04 in SW 1.3 mph 3 mph 100% 0.00 in 0 W/m2
03:34 53.4 °F 53.4 °F 30.04 in SW 1 mph 3 mph 100% 0.00 in 0 W/m2
03:39 53.2 °F 53.2 °F 30.04 in SW 0.8 mph 2 mph 100% 0.00 in 0 W/m2
03:44 53.2 °F 53.2 °F 30.05 in SW 0.2 mph 2 mph 100% 0.00 in 0 W/m2
03:49 53.2 °F 53.2 °F 30.05 in SW 0.1 mph 1 mph 100% 0.00 in 0 W/m2
03:54 53.2 °F 53.2 °F 30.05 in Calm     100% 0.00 in 0 W/m2
03:59 53.1 °F 53.1 °F 30.05 in Calm     100% 0.00 in 0 W/m2
04:04 53.1 °F 53.1 °F 30.05 in Calm     100% 0.00 in 0 W/m2
04:09 53.1 °F 53.1 °F 30.05 in Calm     100% 0.00 in 0 W/m2
04:14 53.2 °F 53.2 °F 30.05 in SW 0.2 mph 1 mph 100% 0.00 in 0 W/m2
04:19 53.2 °F 53.2 °F 30.05 in SSW 0.5 mph 2 mph 100% 0.00 in 0 W/m2
04:24 53.1 °F 53.1 °F 30.05 in Calm   2 mph 100% 0.00 in 0 W/m2
04:29 53.1 °F 53.1 °F 30.05 in Calm     100% 0.00 in 0 W/m2
04:34 53.1 °F 53.1 °F 30.05 in Calm     100% 0.00 in 0 W/m2
04:39 53.1 °F 53.1 °F 30.05 in Calm     100% 0.00 in 0 W/m2
04:44 53 °F 53 °F 30.05 in Calm     100% 0.00 in 0 W/m2
04:49 52.9 °F 52.9 °F 30.05 in Calm     100% 0.00 in 0 W/m2
04:54 52.9 °F 52.9 °F 30.05 in Calm     100% 0.00 in 0 W/m2
04:59 53 °F 53 °F 30.05 in SSE 0.3 mph 1 mph 100% 0.00 in 0 W/m2
05:04 53.2 °F 53.2 °F 30.05 in East 0.7 mph 2 mph 100% 0.00 in 0 W/m2
05:09 53.2 °F 53.2 °F 30.05 in ENE 0.9 mph 2 mph 100% 0.00 in 0 W/m2
05:14 53.2 °F 53.2 °F 30.05 in ENE 1 mph 2 mph 100% 0.00 in 0 W/m2
05:19 53.2 °F 53.2 °F 30.05 in ENE 1 mph 2 mph 100% 0.00 in 0 W/m2
05:24 53.1 °F 53.1 °F 30.05 in NE 0.9 mph 2 mph 100% 0.00 in 0 W/m2
05:29 53.1 °F 53.1 °F 30.05 in NE 1.1 mph 2 mph 100% 0.00 in 0 W/m2
05:34 52.9 °F 52.9 °F 30.05 in NE 0.6 mph 2 mph 100% 0.00 in 0 W/m2
05:39 52.9 °F 52.9 °F 30.05 in NE 1.2 mph 2 mph 100% 0.00 in 0 W/m2
05:44 52.8 °F 52.8 °F 30.05 in ENE 1.6 mph 3 mph 100% 0.00 in 0 W/m2
05:49 52.7 °F 52.7 °F 30.05 in NE 1.1 mph 3 mph 100% 0.00 in 0 W/m2
05:54 52.6 °F 52.6 °F 30.05 in ENE 1.2 mph 2 mph 100% 0.00 in 0 W/m2
05:59 52.6 °F 52.6 °F 30.05 in ENE 1.3 mph 3 mph 100% 0.00 in 0 W/m2
06:04 52.5 °F 52.5 °F 30.05 in ENE 1.5 mph 3 mph 100% 0.00 in 0 W/m2
06:09 52.5 °F 52.5 °F 30.05 in ENE 1.2 mph 2 mph 100% 0.00 in 0 W/m2
06:14 52.5 °F 52.5 °F 30.05 in ENE 1.1 mph 3 mph 100% 0.00 in 0 W/m2
06:19 52.5 °F 52.5 °F 30.05 in NE 0.9 mph 2 mph 100% 0.00 in 0 W/m2
06:24 52.5 °F 52.5 °F 30.05 in NE 1.1 mph 2 mph 100% 0.00 in 0 W/m2
06:29 52.3 °F 52.3 °F 30.05 in NE 1 mph 2 mph 100% 0.00 in 0 W/m2
06:34 52.3 °F 52.3 °F 30.05 in East 0.6 mph 2 mph 100% 0.00 in 0 W/m2
06:39 52.2 °F 52.2 °F 30.05 in ENE 0.6 mph 2 mph 100% 0.00 in 0 W/m2
06:44 52.1 °F 52.1 °F 30.05 in East 1.6 mph 2 mph 100% 0.00 in 5 W/m2
06:49 51.9 °F 51.9 °F 30.05 in ENE 1 mph 2 mph 100% 0.00 in 5 W/m2
06:54 51.9 °F 51.9 °F 30.05 in ENE 1 mph 2 mph 100% 0.00 in 9 W/m2
06:59 51.8 °F 51.8 °F 30.05 in ENE 0.6 mph 2 mph 100% 0.00 in 9 W/m2
07:04 51.7 °F 51.7 °F 30.05 in ENE 0.1 mph 1 mph 100% 0.00 in 11 W/m2
07:09 51.7 °F 51.7 °F 30.05 in ENE 0.3 mph 1 mph 100% 0.00 in 14 W/m2
07:14 51.7 °F 51.7 °F 30.06 in NE 1 mph 2 mph 100% 0.00 in 18 W/m2
07:19 51.7 °F 51.7 °F 30.06 in NE 0.8 mph 2 mph 100% 0.00 in 19 W/m2
07:24 51.7 °F 51.7 °F 30.06 in ENE 0.6 mph 4 mph 100% 0.00 in 23 W/m2
07:29 51.7 °F 51.7 °F 30.06 in ENE 2.5 mph 5 mph 100% 0.00 in 39 W/m2
07:34 51.7 °F 51.7 °F 30.06 in ENE 2.2 mph 5 mph 100% 0.00 in 40 W/m2
07:39 51.7 °F 51.7 °F 30.06 in ENE 1.9 mph 5 mph 100% 0.00 in 35 W/m2
07:44 51.7 °F 51.7 °F 30.06 in ENE 0.7 mph 2 mph 100% 0.00 in 35 W/m2
07:49 51.8 °F 51.8 °F 30.06 in ENE 0.3 mph 2 mph 100% 0.00 in 40 W/m2
07:54 51.9 °F 51.9 °F 30.06 in ENE 0.2 mph 1 mph 100% 0.00 in 42 W/m2
07:59 52.2 °F 52.2 °F 30.07 in ENE 1.2 mph 2 mph 100% 0.00 in 48 W/m2
08:04 52.3 °F 52.3 °F 30.07 in ENE 1.9 mph 3 mph 100% 0.00 in 53 W/m2
08:09 52.3 °F 52.3 °F 30.07 in ENE 2.2 mph 5 mph 100% 0.00 in 74 W/m2
08:14 52.3 °F 52.3 °F 30.07 in ENE 2.3 mph 6 mph 100% 0.00 in 84 W/m2
08:19 52.3 °F 52.3 °F 30.06 in ENE 2.3 mph 6 mph 100% 0.00 in 134 W/m2
08:24 52.3 °F 52.3 °F 30.06 in ENE 2.5 mph 6 mph 100% 0.00 in 144 W/m2
08:29 52.3 °F 52.3 °F 30.07 in ENE 2.5 mph 5 mph 100% 0.00 in 172 W/m2
08:34 52.3 °F 52.3 °F 30.07 in East 1.8 mph 4 mph 100% 0.00 in 155 W/m2
08:39 52.3 °F 52.3 °F 30.07 in ENE 1.5 mph 3 mph 100% 0.00 in 113 W/m2
08:44 52.5 °F 52.5 °F 30.07 in East 1.3 mph 3 mph 100% 0.00 in 148 W/m2
08:49 52.5 °F 52.5 °F 30.07 in East 1.6 mph 3 mph 100% 0.00 in 155 W/m2
08:54 52.6 °F 52.6 °F 30.07 in NE 1.3 mph 3 mph 100% 0.00 in 130 W/m2
08:59 52.9 °F 52.9 °F 30.07 in NE 1.8 mph 3 mph 100% 0.00 in 150 W/m2
09:04 53 °F 53 °F 30.07 in East 1 mph 3 mph 100% 0.00 in 164 W/m2
09:09 52.8 °F 52.8 °F 30.07 in East 1.1 mph 3 mph 100% 0.00 in 158 W/m2
09:14 52.8 °F 52.8 °F 30.07 in ESE 0.4 mph 2 mph 100% 0.00 in 160 W/m2
09:19 53 °F 53 °F 30.06 in ENE 1.2 mph 3 mph 100% 0.00 in 208 W/m2
09:24 53.3 °F 53.3 °F 30.06 in ENE 1.5 mph 3 mph 100% 0.00 in 223 W/m2
09:29 53.3 °F 53.3 °F 30.06 in ENE 1.3 mph 3 mph 100% 0.00 in 208 W/m2
09:34 53.6 °F 53.6 °F 30.06 in ENE 1.3 mph 3 mph 100% 0.00 in 206 W/m2
09:39 53.6 °F 53.6 °F 30.06 in East 1.5 mph 3 mph 100% 0.00 in 213 W/m2
09:44 53.6 °F 53.6 °F 30.06 in East 1.3 mph 3 mph 100% 0.00 in 216 W/m2
09:49 53.9 °F 53.9 °F 30.06 in ESE 0.5 mph 2 mph 100% 0.00 in 246 W/m2
09:54 54.1 °F 54.1 °F 30.06 in East 1.4 mph 3 mph 100% 0.00 in 239 W/m2
09:59 54.2 °F 54.2 °F 30.06 in ESE 0.9 mph 3 mph 100% 0.00 in 234 W/m2
10:04 54.2 °F 54.2 °F 30.06 in East 0.5 mph 3 mph 100% 0.00 in 241 W/m2
10:09 54.6 °F 54.6 °F 30.06 in ENE 0.5 mph 2 mph 100% 0.00 in 280 W/m2
10:14 55 °F 55 °F 30.06 in South 1.3 mph 2 mph 100% 0.00 in 303 W/m2
10:19 55.1 °F 55.1 °F 30.05 in South 1 mph 2 mph 100% 0.00 in 489 W/m2
10:24 55.3 °F 55.3 °F 30.05 in East 1.7 mph 3 mph 100% 0.00 in 489 W/m2
10:29 55.7 °F 55.7 °F 30.05 in ESE 1.4 mph 3 mph 100% 0.00 in 422 W/m2
10:34 56.2 °F 56.2 °F 30.05 in ESE 1.1 mph 2 mph 100% 0.00 in 459 W/m2
10:39 56.7 °F 56.7 °F 30.05 in SSW 1.9 mph 5 mph 100% 0.00 in 392 W/m2
10:44 56.9 °F 56.9 °F 30.05 in SSW 1.7 mph 5 mph 100% 0.00 in 417 W/m2
10:49 57.1 °F 57.1 °F 30.04 in SSW 2.2 mph 5 mph 100% 0.00 in 443 W/m2
10:54 57.3 °F 57.3 °F 30.04 in SSW 2.1 mph 5 mph 100% 0.00 in 334 W/m2
10:59 57.3 °F 57.3 °F 30.04 in SSW 1.8 mph 5 mph 100% 0.00 in 486 W/m2
11:04 57.8 °F 57.8 °F 30.04 in SW 2.2 mph 6 mph 100% 0.00 in 781 W/m2
11:09 58.6 °F 58.5 °F 30.04 in SSW 1.4 mph 5 mph 99.6% 0.00 in 774 W/m2
11:14 59.3 °F 58.8 °F 30.04 in SSW 1.8 mph 5 mph 98.3% 0.00 in 762 W/m2
11:19 59.6 °F 58.3 °F 30.03 in SSW 2.5 mph 6 mph 95.5% 0.00 in 760 W/m2
11:24 59.8 °F 58 °F 30.03 in SSW 2.7 mph 5 mph 93.7% 0.00 in 720 W/m2
11:29 59.9 °F 57.7 °F 30.03 in SSW 3.2 mph 6 mph 92.7% 0.00 in 735 W/m2
11:34 60.2 °F 57.7 °F 30.03 in SSW 1.7 mph 4 mph 91.4% 0.00 in 744 W/m2
11:39 60.5 °F 57.5 °F 30.03 in South 2.2 mph 6 mph 89.6% 0.00 in 757 W/m2
11:44 60.9 °F 57.2 °F 30.03 in SSW 2.8 mph 5 mph 87.8% 0.00 in 757 W/m2
11:49 61.2 °F 57.2 °F 30.01 in South 1.6 mph 5 mph 86.7% 0.00 in 739 W/m2
11:54 61.7 °F 57.3 °F 30.01 in SSW 2.2 mph 5 mph 85.5% 0.00 in 732 W/m2
11:59 62.3 °F 57.7 °F 30.01 in SSW 1.6 mph 3 mph 84.9% 0.00 in 734 W/m2
12:04 63.1 °F 57.8 °F 30.00 in South 1.3 mph 3 mph 82.8% 0.00 in 737 W/m2
12:09 63.5 °F 57.5 °F 30.00 in South 1.6 mph 3 mph 80.9% 0.00 in 743 W/m2
12:14 63.9 °F 57.9 °F 30.00 in South 1.5 mph 3 mph 80.7% 0.00 in 743 W/m2
12:19 64.4 °F 57.3 °F 30.00 in SSW 1.5 mph 3 mph 77.7% 0.00 in 743 W/m2
12:24 65 °F 57.3 °F 30.00 in South 1.1 mph 2 mph 76.1% 0.00 in 741 W/m2
12:29 65.6 °F 57.9 °F 30.00 in South 1.5 mph 3 mph 76.2% 0.00 in 741 W/m2
12:34 66.5 °F 57.7 °F 29.99 in SSW 2.2 mph 5 mph 73.4% 0.00 in 741 W/m2
12:39 67.1 °F 57.1 °F 29.99 in SW 1.5 mph 6 mph 70.3% 0.00 in 743 W/m2
12:44 67.5 °F 56.8 °F 29.99 in SSW 2 mph 6 mph 68.6% 0.00 in 739 W/m2
12:49 67.8 °F 56.8 °F 29.98 in SSW 2.1 mph 5 mph 67.8% 0.00 in 739 W/m2
12:54 68.2 °F 56.4 °F 29.98 in South 1.9 mph 4 mph 65.9% 0.00 in 734 W/m2
12:59 68.4 °F 55.8 °F 29.98 in SSW 1.1 mph 5 mph 64.2% 0.00 in 730 W/m2
13:04 69 °F 56 °F 29.98 in SSW 0.7 mph 5 mph 63.4% 0.00 in 725 W/m2
13:09 69.5 °F 56.2 °F 29.98 in West 0.8 mph 3 mph 62.5% 0.00 in 721 W/m2
13:14 69.9 °F 55.9 °F 29.98 in NNW 0.8 mph 4 mph 61.2% 0.00 in 718 W/m2
13:19 70.4 °F 56.5 °F 29.97 in SSW 2.3 mph 6 mph 61.5% 0.00 in 714 W/m2
13:24 70.6 °F 56 °F 29.97 in SSW 1.6 mph 5 mph 60% 0.00 in 709 W/m2
13:29 70.9 °F 55.7 °F 29.97 in SSW 2.3 mph 7 mph 58.6% 0.00 in 702 W/m2
13:34 71.3 °F 55.8 °F 29.96 in SW 1.3 mph 7 mph 58.1% 0.00 in 697 W/m2
13:39 71.7 °F 55.2 °F 29.96 in WSW 1.1 mph 3 mph 56.1% 0.00 in 691 W/m2
13:44 71.8 °F 55.1 °F 29.96 in SW 0.1 mph 2 mph 55.7% 0.00 in 688 W/m2
13:49 71.8 °F 55.4 °F 29.95 in SSW 2 mph 7 mph 56.2% 0.00 in 683 W/m2
13:54 72 °F 55.9 °F 29.95 in SW 1.4 mph 7 mph 56.8% 0.00 in 674 W/m2
13:59 72.1 °F 55.9 °F 29.95 in NW 0.6 mph 3 mph 56.7% 0.00 in 667 W/m2
14:04 71.9 °F 55.9 °F 29.94 in SW 0.5 mph 3 mph 57% 0.00 in 382 W/m2
14:09 71.8 °F 56.4 °F 29.94 in South 0.7 mph 2 mph 58.4% 0.00 in 382 W/m2
14:14 71.6 °F 55.9 °F 29.94 in SW 0.3 mph 2 mph 57.6% 0.00 in 586 W/m2
14:19 71.7 °F 56.2 °F 29.93 in SW 1 mph 6 mph 57.9% 0.00 in 560 W/m2
14:24 71.9 °F 56.7 °F 29.93 in SSW 2.4 mph 6 mph 58.7% 0.00 in 229 W/m2
14:29 71.7 °F 55.7 °F 29.93 in South 0.8 mph 4 mph 57.1% 0.00 in 229 W/m2
14:34 71.6 °F 56.8 °F 29.93 in SW 2.1 mph 5 mph 59.7% 0.00 in 250 W/m2
14:39 71.5 °F 57.2 °F 29.93 in SSW 2.3 mph 6 mph 60.6% 0.00 in 260 W/m2
14:44 71.3 °F 56.2 °F 29.93 in SSE 1.7 mph 6 mph 58.8% 0.00 in 153 W/m2
14:49 71.3 °F 56.9 °F 29.92 in NNW 0.4 mph 2 mph 60.4% 0.00 in 44 W/m2
14:54 71.1 °F 56.7 °F 29.92 in NE 0.5 mph 3 mph 60.3% 0.00 in 42 W/m2
14:59 70.9 °F 56.9 °F 29.92 in NNW 0.3 mph 2 mph 61.3% 0.00 in 42 W/m2
15:04 70.8 °F 57.5 °F 29.92 in SW 0.8 mph 4 mph 62.8% 0.00 in 62 W/m2
15:09 70.8 °F 57.5 °F 29.92 in SW 0.7 mph 4 mph 62.8% 0.00 in 60 W/m2
15:14 70.8 °F 57.7 °F 29.92 in SW 0.3 mph 2 mph 63.2% 0.00 in 48 W/m2
15:19 70.8 °F 57.4 °F 29.91 in SSW 0.7 mph 2 mph 62.6% 0.00 in 79 W/m2
15:24 70.9 °F 57.2 °F 29.91 in SW 1.6 mph 6 mph 62% 0.00 in 42 W/m2
15:29 70.8 °F 56.3 °F 29.91 in West 0.5 mph 2 mph 60.2% 0.00 in 46 W/m2
15:34 70.8 °F 57.3 °F 29.91 in WSW 0.2 mph 2 mph 62.4% 0.00 in 46 W/m2
15:39 70.8 °F 57 °F 29.91 in NW 0.4 mph 1 mph 61.6% 0.00 in 42 W/m2
15:44 70.8 °F 56.2 °F 29.91 in NNW 0.5 mph 3 mph 59.9% 0.00 in 40 W/m2
15:49 70.8 °F 56.5 °F 29.90 in WSW 0.2 mph 2 mph 60.7% 0.00 in 46 W/m2
15:54 70.8 °F 58.2 °F 29.90 in WSW 0.1 mph 2 mph 64.4% 0.00 in 53 W/m2
15:59 70.8 °F 58.7 °F 29.90 in WSW 0.1 mph 1 mph 65.5% 0.00 in 53 W/m2
16:04 70.6 °F 56.7 °F 29.90 in SSW 0.6 mph 5 mph 61.3% 0.00 in 49 W/m2
16:09 70.6 °F 57.2 °F 29.90 in SSW 0.4 mph 2 mph 62.5% 0.00 in 48 W/m2
16:14 70.6 °F 56.7 °F 29.90 in SSW 1.1 mph 3 mph 61.5% 0.00 in 42 W/m2
16:19 70.6 °F 57.9 °F 29.90 in West 0.3 mph 2 mph 64.1% 0.00 in 39 W/m2
16:24 70.7 °F 59.1 °F 29.90 in Calm     66.7% 0.00 in 35 W/m2
16:29 70.6 °F 59.7 °F 29.90 in Calm     68.5% 0.00 in 37 W/m2
16:34 70.3 °F 59.1 °F 29.89 in WSW 0.6 mph 2 mph 67.5% 0.00 in 55 W/m2
16:39 70.1 °F 60.2 °F 29.89 in Calm   1 mph 70.7% 0.00 in 37 W/m2
16:44 69.8 °F 60.3 °F 29.89 in Calm     71.6% 0.00 in 33 W/m2
16:49 69.5 °F 60 °F 29.89 in Calm     71.8% 0.00 in 33 W/m2
16:54 69.2 °F 60.1 °F 29.89 in Calm     72.8% 0.00 in 35 W/m2
16:59 68.9 °F 60.5 °F 29.89 in Calm     74.6% 0.00 in 33 W/m2
17:04 68.6 °F 60.4 °F 29.89 in Calm     75.2% 0.00 in 37 W/m2
17:09 68.3 °F 61 °F 29.89 in Calm     77.5% 0.00 in 33 W/m2
17:14 67.9 °F 61 °F 29.89 in Calm     78.6% 0.00 in 32 W/m2
17:19 67.4 °F 61.2 °F 29.89 in Calm     80.3% 0.00 in 28 W/m2
17:24 67 °F 61.2 °F 29.89 in Calm     81.8% 0.00 in 25 W/m2
17:29 66.5 °F 61.3 °F 29.89 in Calm     83.1% 0.00 in 25 W/m2
17:34 66.1 °F 61.1 °F 29.88 in Calm     84.1% 0.00 in 25 W/m2
17:39 65.7 °F 61.2 °F 29.88 in Calm     85.6% 0.00 in 25 W/m2
17:44 65.3 °F 61.1 °F 29.88 in Calm     86.3% 0.00 in 21 W/m2
17:49 64.8 °F 61 °F 29.88 in Calm     87.5% 0.00 in 19 W/m2
17:54 64.5 °F 61.1 °F 29.88 in Calm     88.8% 0.00 in 18 W/m2
17:59 64.2 °F 61 °F 29.89 in Calm     89.4% 0.00 in 18 W/m2
18:04 63.9 °F 61 °F 29.89 in Calm     90.3% 0.00 in 18 W/m2
18:09 63.6 °F 61 °F 29.89 in Calm     91.1% 0.00 in 14 W/m2
18:14 63.4 °F 61.1 °F 29.89 in Calm     92% 0.00 in 12 W/m2
18:19 63.2 °F 61 °F 29.89 in Calm     92.5% 0.00 in 11 W/m2
18:24 63 °F 61 °F 29.89 in Calm     93% 0.00 in 9 W/m2
18:29 62.7 °F 60.7 °F 29.89 in Calm     93.1% 0.00 in 9 W/m2
18:34 62.6 °F 60.8 °F 29.89 in Calm     94% 0.00 in 7 W/m2
18:39 62.4 °F 60.6 °F 29.89 in Calm     94% 0.00 in 5 W/m2
18:44 62.1 °F 60.4 °F 29.89 in Calm     94.3% 0.00 in 0 W/m2
18:49 61.7 °F 60.3 °F 29.89 in Calm     95% 0.00 in 0 W/m2
18:54 61.5 °F 60 °F 29.89 in Calm     95% 0.00 in 0 W/m2
18:59 61.3 °F 59.9 °F 29.89 in Calm     95.3% 0.00 in 0 W/m2
19:04 61 °F 59.8 °F 29.89 in Calm     96% 0.00 in 0 W/m2
19:09 60.7 °F 59.6 °F 29.89 in Calm     96% 0.00 in 0 W/m2
19:14 60.4 °F 59.3 °F 29.89 in Calm     96.1% 0.00 in 0 W/m2
19:19 60.2 °F 59.4 °F 29.89 in Calm     97% 0.00 in 0 W/m2
19:24 60.1 °F 59.2 °F 29.89 in Calm     97% 0.00 in 0 W/m2
19:29 59.9 °F 59 °F 29.89 in Calm     97% 0.00 in 0 W/m2
19:34 59.6 °F 58.8 °F 29.88 in Calm     97% 0.00 in 0 W/m2
19:39 59.3 °F 58.5 °F 29.88 in Calm   1 mph 97% 0.00 in 0 W/m2
19:44 59.1 °F 58.4 °F 29.88 in West 0.2 mph 2 mph 97.6% 0.00 in 0 W/m2
19:49 58.9 °F 58.4 °F 29.88 in Calm     98% 0.00 in 0 W/m2
19:54 58.7 °F 58.2 °F 29.88 in Calm     98% 0.00 in 0 W/m2
19:59 58.6 °F 58 °F 29.88 in Calm   1 mph 98% 0.00 in 0 W/m2
20:04 58.4 °F 57.9 °F 29.88 in Calm     98% 0.00 in 0 W/m2
20:09 58.3 °F 57.8 °F 29.88 in Calm     98% 0.00 in 0 W/m2
20:14 58.1 °F 57.6 °F 29.88 in Calm     98% 0.00 in 0 W/m2
20:19 57.9 °F 57.5 °F 29.88 in Calm     98.5% 0.00 in 0 W/m2
20:24 57.7 °F 57.3 °F 29.88 in Calm     98.8% 0.00 in 0 W/m2
20:29 57.5 °F 57.2 °F 29.88 in Calm     99% 0.00 in 0 W/m2
Lisbon, New Hampshire, USA
Compliments of Weather Underground - 3.75 mb